createdAt,value
2018-07-26T01:16:29.855Z,5.22
2018-07-26T05:53:00.370Z,3.52
2018-07-26T05:55:31.349Z,3.30
2018-07-26T05:58:02.863Z,3.55
2018-07-26T06:00:33.975Z,3.02
2018-07-26T06:03:04.881Z,3.50
2018-07-26T06:05:35.983Z,3.58
2018-07-26T06:08:07.778Z,3.45
2018-07-26T06:10:40.362Z,3.05
2018-07-26T06:13:12.066Z,3.20
2018-07-26T06:15:43.654Z,3.22
2018-07-26T06:18:13.926Z,3.37
2018-07-26T06:20:44.923Z,3.37
2018-07-26T06:23:15.107Z,3.83
2018-07-26T06:25:47.438Z,3.20
2018-07-26T06:28:18.793Z,3.30
2018-07-26T06:30:49.984Z,3.20
2018-07-26T06:33:20.307Z,3.30
2018-07-26T06:35:50.714Z,3.40
2018-07-26T06:38:21.627Z,3.27
2018-07-26T06:40:52.539Z,3.83
2018-07-26T06:43:23.116Z,3.27
2018-07-26T06:45:55.100Z,3.60
2018-07-26T06:48:25.690Z,3.10
2018-07-26T06:50:56.990Z,2.90
2018-07-26T06:53:29.087Z,3.40
2018-07-26T06:55:59.332Z,3.50
2018-07-26T06:58:29.818Z,3.00
2018-07-26T07:01:00.009Z,3.40
2018-07-26T07:03:31.678Z,3.10
2018-07-26T07:06:02.233Z,3.60
2018-07-26T07:08:33.228Z,3.20
2018-07-26T07:11:03.559Z,3.17
2018-07-26T07:13:33.896Z,3.10
2018-07-26T07:16:04.250Z,3.10
2018-07-26T07:18:35.445Z,3.47
2018-07-26T07:21:06.057Z,3.50
2018-07-26T07:23:36.289Z,3.40
2018-07-26T07:26:07.346Z,3.37
2018-07-26T07:28:38.534Z,3.23
2018-07-26T07:31:09.147Z,3.20
2018-07-26T07:33:39.389Z,3.60
2018-07-26T07:36:10.539Z,3.07
2018-07-26T07:38:40.826Z,3.00
2018-07-26T07:41:11.729Z,3.20
2018-07-26T07:43:45.127Z,3.10
2018-07-26T07:46:16.262Z,3.30
2018-07-26T07:48:48.448Z,3.70
2018-07-26T07:51:18.838Z,3.20
2018-07-26T07:53:49.643Z,3.20
2018-07-26T07:56:19.957Z,2.73
2018-07-26T07:58:50.193Z,3.00
2018-07-26T08:01:20.519Z,3.33
2018-07-26T08:03:51.272Z,3.63
2018-07-26T08:06:21.594Z,3.53
2018-07-26T08:08:52.613Z,3.20
2018-07-26T08:11:22.952Z,3.13
2018-07-26T08:13:53.625Z,3.17
2018-07-26T08:16:24.515Z,3.20
2018-07-26T08:18:55.093Z,3.83
2018-07-26T08:21:25.384Z,3.20
2018-07-26T08:23:56.423Z,3.23
2018-07-26T08:26:26.627Z,3.53
2018-07-26T08:28:57.218Z,3.20
2018-07-26T08:31:28.004Z,3.37
2018-07-26T08:33:58.733Z,3.60
2018-07-26T08:36:29.504Z,3.60
2018-07-26T08:39:00.969Z,3.63
2018-07-26T08:41:31.394Z,3.60
2018-07-26T08:44:02.197Z,2.83
2018-07-26T08:46:32.561Z,3.40
2018-07-26T08:49:02.742Z,3.00
2018-07-26T08:51:33.137Z,3.20
2018-07-26T08:54:03.482Z,3.00
2018-07-26T08:56:34.247Z,2.90
2018-07-26T08:59:05.565Z,3.17
2018-07-26T09:01:35.797Z,3.10
2018-07-26T09:04:06.510Z,3.10
2018-07-26T09:06:36.858Z,2.73
2018-07-26T09:09:10.679Z,3.20
2018-07-26T09:11:41.612Z,3.17
2018-07-26T09:14:12.123Z,2.87
2018-07-26T09:16:42.354Z,3.30
2018-07-26T09:19:12.573Z,3.30
2018-07-26T09:21:43.528Z,3.30
2018-07-26T09:24:13.736Z,3.70
2018-07-26T09:26:44.407Z,3.00
2018-07-26T09:29:16.033Z,2.90
2018-07-26T09:31:46.366Z,3.63
2018-07-26T09:34:16.627Z,3.30
2018-07-26T09:36:47.179Z,2.80
2018-07-26T09:39:17.852Z,3.10
2018-07-26T09:41:48.357Z,3.40
2018-07-26T09:44:18.934Z,3.30
2018-07-26T09:46:49.334Z,3.37
2018-07-26T09:49:19.865Z,3.43
2018-07-26T09:51:50.190Z,3.20
2018-07-26T09:54:21.172Z,3.30
2018-07-26T09:56:51.898Z,3.10
2018-07-26T09:59:22.316Z,3.17
2018-07-26T10:01:52.586Z,2.97
2018-07-26T10:04:23.129Z,3.90
2018-07-26T10:06:53.656Z,3.57
2018-07-26T10:09:24.067Z,3.20
2018-07-26T10:11:54.375Z,3.30
2018-07-26T10:14:25.568Z,3.07
2018-07-26T10:16:56.046Z,3.30
2018-07-26T10:19:26.228Z,3.53
2018-07-26T10:21:57.023Z,3.63
2018-07-26T10:24:27.612Z,3.57
2018-07-26T10:26:58.041Z,2.73
2018-07-26T10:29:28.493Z,2.90
2018-07-26T10:31:59.060Z,2.80
2018-07-26T10:34:29.577Z,2.57
2018-07-26T10:37:00.322Z,3.10
2018-07-26T10:39:30.897Z,2.90
2018-07-26T10:42:01.685Z,2.90
2018-07-26T10:44:31.970Z,3.00
2018-07-26T10:47:02.568Z,2.40
2018-07-26T10:49:33.020Z,2.30
2018-07-26T10:52:03.247Z,2.67
2018-07-26T10:54:33.553Z,2.40
2018-07-26T10:57:03.817Z,2.70
2018-07-26T10:59:34.078Z,2.50
2018-07-26T11:02:04.535Z,2.70
2018-07-26T11:04:35.019Z,2.67
2018-07-26T11:07:05.514Z,2.37
2018-07-26T11:09:35.843Z,2.30
2018-07-26T11:12:06.396Z,2.60
2018-07-26T11:14:37.222Z,2.37
2018-07-26T11:17:07.527Z,2.57
2018-07-26T11:19:37.723Z,2.60
2018-07-26T11:22:08.812Z,2.50
2018-07-26T11:24:44.887Z,2.73
2018-07-26T11:27:16.528Z,2.73
2018-07-26T11:29:47.419Z,2.40
2018-07-26T11:32:21.022Z,2.30
2018-07-26T11:34:52.576Z,2.73
2018-07-26T11:37:24.063Z,2.30
2018-07-26T11:39:55.298Z,2.80
2018-07-26T11:42:28.259Z,2.57
2018-07-26T11:44:58.823Z,2.63
2018-07-26T11:47:29.496Z,2.33
2018-07-26T11:50:04.256Z,2.57
2018-07-26T11:52:36.307Z,3.17
2018-07-26T11:55:07.662Z,2.80
2018-07-26T11:57:39.215Z,2.30
2018-07-26T12:00:10.159Z,2.90
2018-07-26T12:02:41.039Z,2.77
2018-07-26T12:05:12.155Z,2.80
2018-07-26T12:07:46.687Z,2.60
2018-07-26T12:10:17.577Z,2.70
2018-07-26T12:12:49.192Z,2.70
2018-07-26T12:15:19.587Z,2.80
2018-07-26T12:17:49.969Z,2.50
2018-07-26T12:20:22.394Z,2.67
2018-07-26T12:22:53.565Z,2.70
2018-07-26T12:25:25.132Z,2.93
2018-07-26T12:27:55.619Z,2.73
2018-07-26T12:30:26.254Z,2.53
2018-07-26T12:32:56.573Z,2.80
2018-07-26T12:35:27.502Z,2.60
2018-07-26T12:37:57.968Z,2.60
2018-07-26T12:40:29.156Z,2.70
2018-07-26T12:43:01.013Z,2.67
2018-07-26T12:45:31.610Z,2.30
2018-07-26T12:48:02.299Z,2.67
2018-07-26T12:50:33.480Z,2.57
2018-07-26T12:53:04.540Z,2.07
2018-07-26T12:55:35.053Z,2.20
2018-07-26T12:58:05.789Z,2.50
2018-07-26T13:00:36.019Z,2.20
2018-07-26T13:03:06.538Z,2.50
2018-07-26T13:05:36.960Z,2.63
2018-07-26T13:08:07.643Z,2.63
2018-07-26T13:10:38.119Z,2.50
2018-07-26T13:13:08.454Z,2.70
2018-07-26T13:15:39.158Z,2.60
2018-07-26T13:18:10.142Z,2.27
2018-07-26T13:20:40.475Z,2.10
2018-07-26T13:23:11.362Z,2.67
2018-07-26T13:25:41.796Z,2.43
2018-07-26T13:28:12.756Z,2.43
2018-07-26T13:30:43.094Z,2.60
2018-07-26T13:33:13.690Z,2.50
2018-07-26T13:35:43.951Z,2.30
2018-07-26T13:38:14.588Z,2.27
2018-07-26T13:40:46.002Z,2.20
2018-07-26T13:43:16.464Z,2.73
2018-07-26T13:45:46.730Z,2.30
2018-07-26T13:48:17.062Z,2.33
2018-07-26T13:50:47.425Z,2.27
2018-07-26T13:53:17.946Z,2.93
2018-07-26T13:55:48.440Z,2.40
2018-07-26T13:58:18.942Z,2.30
2018-07-26T14:00:49.458Z,2.30
2018-07-26T14:03:19.950Z,2.40
2018-07-26T14:05:50.474Z,2.30
2018-07-26T14:08:21.026Z,2.00
2018-07-26T14:10:51.814Z,2.40
2018-07-26T14:13:22.204Z,2.30
2018-07-26T14:15:52.603Z,2.50
2018-07-26T14:18:23.361Z,2.50
2018-07-26T14:20:54.121Z,2.43
2018-07-26T14:23:29.835Z,2.67
2018-07-26T14:32:18.103Z,2.50
2018-07-26T14:34:48.608Z,2.33
2018-07-26T14:37:18.954Z,2.67
2018-07-26T14:39:49.745Z,2.53
2018-07-26T14:42:20.898Z,2.40
2018-07-26T14:44:51.798Z,2.77
2018-07-26T14:47:22.213Z,2.40
2018-07-26T14:49:52.575Z,2.50
2018-07-26T14:52:23.249Z,2.47
2018-07-26T14:54:53.858Z,2.50
2018-07-26T14:57:24.101Z,2.60
2018-07-26T14:59:54.391Z,2.63
2018-07-26T15:02:25.465Z,2.30
2018-07-26T15:04:56.208Z,2.50
2018-07-26T15:07:26.543Z,2.60
2018-07-26T15:09:56.856Z,3.23
2018-07-26T15:12:27.272Z,2.37
2018-07-26T15:14:57.726Z,2.63
2018-07-26T15:17:28.315Z,2.60
2018-07-26T15:19:58.862Z,2.80
2018-07-26T15:22:29.125Z,2.47
2018-07-26T15:24:59.779Z,2.90
2018-07-26T15:27:44.792Z,2.97
2018-07-26T15:36:41.857Z,2.70
2018-07-26T15:39:27.151Z,3.20
2018-07-26T15:41:58.045Z,2.90
2018-07-26T15:44:28.358Z,2.93
2018-07-26T15:46:58.870Z,2.80
2018-07-26T15:49:29.196Z,2.60
2018-07-26T15:51:59.530Z,2.80
2018-07-26T15:54:30.456Z,2.70
2018-07-26T15:57:01.131Z,3.13
2018-07-26T15:59:31.667Z,2.97
2018-07-26T16:02:02.096Z,2.60
2018-07-26T16:04:33.313Z,2.70
2018-07-26T16:07:03.845Z,3.17
2018-07-26T16:09:34.284Z,3.43
2018-07-26T16:12:04.891Z,3.53
2018-07-26T16:14:35.587Z,2.50
2018-07-26T16:17:06.270Z,2.90
2018-07-26T16:19:36.598Z,2.90
2018-07-26T16:22:07.612Z,3.20
2018-07-26T16:24:38.292Z,3.00
2018-07-26T16:27:09.116Z,2.97
2018-07-26T16:29:40.000Z,3.13
2018-07-26T16:32:11.260Z,2.97
2018-07-26T16:34:41.660Z,2.70
2018-07-26T16:37:12.273Z,2.77
2018-07-26T16:46:01.866Z,3.17
2018-07-26T16:48:32.956Z,3.33
2018-07-26T16:51:03.579Z,2.77
2018-07-26T16:53:34.408Z,2.87
2018-07-26T16:56:04.795Z,3.00
2018-07-26T16:58:35.505Z,3.03
2018-07-26T17:01:06.643Z,3.03
2018-07-26T17:03:37.537Z,2.87
2018-07-26T17:06:08.106Z,3.07
2018-07-26T17:08:39.652Z,3.20
2018-07-26T17:11:10.794Z,3.17
2018-07-26T17:26:26.205Z,2.92
2018-07-26T17:28:57.625Z,3.20
2018-07-26T17:31:28.497Z,2.90
2018-07-26T17:33:59.450Z,3.17
2018-07-26T17:36:31.213Z,3.83
2018-07-26T17:39:19.170Z,3.23
2018-07-26T17:42:15.224Z,2.90
2018-07-26T17:51:03.334Z,3.72
